Time;durP1;ratioP1;P1;durP2;ratioP2;P2;SDS_P1;SDS_P2;PMS_P1;PMS_P2;Temp;Humidity;BMP_temperature;BMP_pressure;BME280_temperature;BME280_humidity;BME280_pressure;Samples;Min_cycle;Max_cycle;Signal;HPM_P1;HPM_P2
2023/05/14 00:02:17;;;;;;;;;;;19.70;72.30;;;;;;5063398;28;42906;-86
2023/05/14 00:04:42;;;;;;;;;;;19.70;72.20;;;;;;5063508;28;43554;-80
2023/05/14 00:07:08;;;;;;;;;;;19.90;72.20;;;;;;5064166;28;43142;-82
2023/05/14 00:09:34;;;;;;;;;;;19.70;72.40;;;;;;5063860;28;43900;-83
2023/05/14 00:11:59;;;;;;;;;;;19.80;72.10;;;;;;5064228;28;42909;-84
2023/05/14 00:14:25;;;;;;;;;;;19.80;72.00;;;;;;5064007;28;43039;-81
2023/05/14 00:16:50;;;;;;;;;;;19.90;72.20;;;;;;5061554;28;43991;-79
2023/05/14 00:19:16;;;;;;;;;;;19.80;72.50;;;;;;5062737;28;43430;-81
2023/05/14 00:21:41;;;;;;;;;;;20.00;72.50;;;;;;5063039;28;42807;-80
2023/05/14 00:24:07;;;;;;;;;;;19.80;72.20;;;;;;5063283;28;43413;-81
2023/05/14 00:26:32;;;;;;;;;;;19.70;72.00;;;;;;5064271;28;42921;-79
2023/05/14 00:28:58;;;;;;;;;;;19.90;72.30;;;;;;5063128;28;43273;-82
2023/05/14 00:31:23;;;;;;;;;;;19.80;72.10;;;;;;5064012;28;43038;-79
2023/05/14 00:33:49;;;;;;;;;;;19.80;72.40;;;;;;5062990;28;43585;-79
2023/05/14 00:36:15;;;;;;;;;;;19.70;72.30;;;;;;5062980;28;42980;-79
2023/05/14 00:38:40;;;;;;;;;;;19.80;72.40;;;;;;5061816;28;44441;-80
2023/05/14 00:41:06;;;;;;;;;;;19.80;72.10;;;;;;5053203;28;42943;-79
2023/05/14 00:43:32;;;;;;;;;;;19.80;72.50;;;;;;5062518;28;43437;-80
2023/05/14 00:45:57;;;;;;;;;;;20.00;72.30;;;;;;5061480;28;43009;-79
2023/05/14 00:48:23;;;;;;;;;;;19.90;72.70;;;;;;5062781;28;42962;-79
2023/05/14 00:50:49;;;;;;;;;;;19.80;72.40;;;;;;5063737;28;42926;-79
2023/05/14 00:53:15;;;;;;;;;;;19.80;72.40;;;;;;5063707;28;43477;-80
2023/05/14 00:55:41;;;;;;;;;;;19.90;72.40;;;;;;5063245;28;42959;-80
2023/05/14 00:58:08;;;;;;;;;;;19.60;72.40;;;;;;5062630;28;43106;-80
2023/05/14 01:00:34;;;;;;;;;;;19.80;72.10;;;;;;5060786;28;43097;-81
2023/05/14 01:03:00;;;;;;;;;;;19.70;72.50;;;;;;5062393;28;43001;-81
2023/05/14 01:05:28;;;;;;;;;;;19.90;72.30;;;;;;5063142;28;42828;-80
2023/05/14 01:07:59;;;;;;;;;;;19.80;72.50;;;;;;5062760;28;43570;-83
2023/05/14 01:10:41;;;;;;;;;;;19.80;72.60;;;;;;5062798;28;43104;-84
2023/05/14 01:13:19;;;;;;;;;;;20.00;72.40;;;;;;5063972;28;43432;-80
2023/05/14 01:15:46;;;;;;;;;;;19.90;72.30;;;;;;5049541;28;43055;-82
2023/05/14 01:18:13;;;;;;;;;;;19.80;72.40;;;;;;5059806;28;43629;-84
2023/05/14 01:20:38;;;;;;;;;;;19.70;72.10;;;;;;5065442;28;44135;-79
2023/05/14 01:23:04;;;;;;;;;;;19.70;72.00;;;;;;5065823;28;43903;-85
2023/05/14 01:25:30;;;;;;;;;;;19.70;72.30;;;;;;5066004;28;43799;-80
2023/05/14 01:28:28;;;;;;;;;;;19.70;72.20;;;;;;5065384;28;44483;-79
2023/05/14 01:31:01;;;;;;;;;;;19.80;72.10;;;;;;5024042;28;43229;-79
2023/05/14 01:33:28;;;;;;;;;;;19.70;72.50;;;;;;5064912;28;43549;-84
2023/05/14 01:35:54;;;;;;;;;;;19.40;72.30;;;;;;5064653;28;43033;-80
2023/05/14 01:38:20;;;;;;;;;;;19.70;72.50;;;;;;5065409;28;43561;-79
2023/05/14 01:40:46;;;;;;;;;;;19.70;72.70;;;;;;5065100;28;43106;-77
2023/05/14 01:43:12;;;;;;;;;;;19.70;72.20;;;;;;5063700;28;44021;-80
2023/05/14 01:45:38;;;;;;;;;;;19.80;72.50;;;;;;5065790;28;43028;-78
2023/05/14 01:48:04;;;;;;;;;;;19.70;72.40;;;;;;5064778;28;43748;-79
2023/05/14 01:50:30;;;;;;;;;;;19.80;72.50;;;;;;5064601;28;43043;-74
2023/05/14 01:52:55;;;;;;;;;;;19.90;72.70;;;;;;5063372;28;43146;-78
2023/05/14 01:55:22;;;;;;;;;;;;;;;;;;5065435;28;43014;-79
2023/05/14 01:57:48;;;;;;;;;;;19.90;70.10;;;;;;5064542;28;43026;-78
2023/05/14 02:00:13;;;;;;;;;;;19.80;72.80;;;;;;5064812;28;43069;-78
2023/05/14 02:02:39;;;;;;;;;;;20.00;72.90;;;;;;5064090;28;43637;-78
2023/05/14 02:05:05;;;;;;;;;;;19.80;72.80;;;;;;5064946;28;43180;-77
2023/05/14 02:07:30;;;;;;;;;;;19.60;72.70;;;;;;5065008;28;43987;-79
2023/05/14 02:09:56;;;;;;;;;;;19.90;72.90;;;;;;5064906;28;43118;-78
2023/05/14 02:12:21;;;;;;;;;;;19.90;73.00;;;;;;5062788;28;43838;-78
2023/05/14 02:14:47;;;;;;;;;;;19.80;73.00;;;;;;5064987;28;43054;-77
2023/05/14 02:17:15;;;;;;;;;;;19.90;73.50;;;;;;5064563;28;44366;-77
2023/05/14 02:19:40;;;;;;;;;;;20.50;73.70;;;;;;5054532;28;43592;-78
2023/05/14 02:22:06;;;;;;;;;;;19.80;73.20;;;;;;5059728;28;44055;-78
2023/05/14 02:24:31;;;;;;;;;;;19.90;73.30;;;;;;5064028;28;43065;-78
2023/05/14 02:26:59;;;;;;;;;;;20.00;73.50;;;;;;5064170;28;43591;-78
2023/05/14 02:29:25;;;;;;;;;;;19.70;73.50;;;;;;5064739;28;43007;-79
2023/05/14 02:31:51;;;;;;;;;;;19.70;74.30;;;;;;5064275;28;43870;-78
2023/05/14 02:34:16;;;;;;;;;;;19.90;73.30;;;;;;5063906;28;43115;-78
2023/05/14 02:36:42;;;;;;;;;;;19.90;73.50;;;;;;5075640;28;42983;-78
2023/05/14 02:39:07;;;;;;;;;;;19.90;73.40;;;;;;5065348;28;42905;-77
2023/05/14 02:41:33;;;;;;;;;;;19.80;73.30;;;;;;5065233;27;43205;-79
2023/05/14 02:43:58;;;;;;;;;;;19.80;73.80;;;;;;5062425;28;43014;-78
2023/05/14 02:46:24;;;;;;;;;;;19.70;73.40;;;;;;5065158;28;42756;-79
2023/05/14 02:48:50;;;;;;;;;;;19.90;73.60;;;;;;5057664;28;42922;-79
2023/05/14 02:51:15;;;;;;;;;;;20.00;74.00;;;;;;5062055;28;44246;-79
2023/05/14 02:53:41;;;;;;;;;;;19.80;73.50;;;;;;5063935;28;43273;-79
2023/05/14 02:56:07;;;;;;;;;;;19.20;73.20;;;;;;5063437;28;43061;-77
2023/05/14 02:58:32;;;;;;;;;;;19.70;74.00;;;;;;5064491;28;43827;-81
2023/05/14 03:00:58;;;;;;;;;;;19.90;73.60;;;;;;5063440;28;42906;-80
2023/05/14 03:03:23;;;;;;;;;;;19.90;73.90;;;;;;5063990;28;42917;-79
2023/05/14 03:05:49;;;;;;;;;;;19.90;74.00;;;;;;5063806;28;43364;-79
2023/05/14 03:08:15;;;;;;;;;;;19.70;74.00;;;;;;5064083;28;43030;-78
2023/05/14 03:10:40;;;;;;;;;;;20.00;74.00;;;;;;5063148;28;43615;-78
2023/05/14 03:13:06;;;;;;;;;;;19.90;74.30;;;;;;5062450;28;43361;-77
2023/05/14 03:15:31;;;;;;;;;;;19.90;74.20;;;;;;5062660;28;43049;-83
2023/05/14 03:17:57;;;;;;;;;;;19.90;74.30;;;;;;5063650;28;42811;-80
2023/05/14 03:20:25;;;;;;;;;;;19.80;74.60;;;;;;5063011;28;42984;-77
2023/05/14 03:22:51;;;;;;;;;;;19.90;74.30;;;;;;5060465;28;43027;-76
2023/05/14 03:25:16;;;;;;;;;;;19.90;74.50;;;;;;5062565;28;43242;-77
2023/05/14 03:27:42;;;;;;;;;;;19.90;74.50;;;;;;5063618;28;42955;-77
2023/05/14 03:30:07;;;;;;;;;;;20.00;74.50;;;;;;5063800;28;42987;-77
2023/05/14 03:32:33;;;;;;;;;;;20.00;74.10;;;;;;5063355;28;42989;-77
2023/05/14 03:34:58;;;;;;;;;;;20.50;74.80;;;;;;5062690;28;43019;-77
2023/05/14 03:37:24;;;;;;;;;;;19.90;74.60;;;;;;5062308;28;43144;-76
2023/05/14 03:39:49;;;;;;;;;;;19.90;74.60;;;;;;5059755;28;44203;-76
2023/05/14 03:42:15;;;;;;;;;;;19.60;74.80;;;;;;5054431;28;42945;-77
2023/05/14 03:44:40;;;;;;;;;;;19.70;75.10;;;;;;5063230;28;43640;-77
2023/05/14 03:47:06;;;;;;;;;;;20.00;75.00;;;;;;5062731;28;43112;-76
2023/05/14 03:49:32;;;;;;;;;;;19.90;75.40;;;;;;5062162;28;43432;-77
2023/05/14 03:51:58;;;;;;;;;;;20.00;75.10;;;;;;5063656;28;43037;-77
2023/05/14 03:54:24;;;;;;;;;;;19.90;75.60;;;;;;5062118;28;44377;-75
2023/05/14 03:56:49;;;;;;;;;;;19.90;75.30;;;;;;5064071;28;42963;-77
2023/05/14 03:59:15;;;;;;;;;;;19.90;75.40;;;;;;5063728;28;43641;-76
2023/05/14 04:01:42;;;;;;;;;;;19.90;75.40;;;;;;5063738;28;44194;-77
2023/05/14 04:04:08;;;;;;;;;;;19.90;75.30;;;;;;5063157;28;42996;-76
2023/05/14 04:06:33;;;;;;;;;;;19.10;75.50;;;;;;5063276;28;42960;-77
2023/05/14 04:08:59;;;;;;;;;;;20.00;75.50;;;;;;5063443;28;43080;-77
2023/05/14 04:11:24;;;;;;;;;;;19.70;75.60;;;;;;5058162;28;43008;-79
2023/05/14 04:13:50;;;;;;;;;;;19.70;75.60;;;;;;5059838;28;43335;-78
2023/05/14 04:16:15;;;;;;;;;;;19.70;75.40;;;;;;5062733;28;43058;-75
2023/05/14 04:18:41;;;;;;;;;;;19.80;75.30;;;;;;5063046;28;43550;-75
2023/05/14 04:21:06;;;;;;;;;;;19.70;75.60;;;;;;5062295;28;43023;-75
2023/05/14 04:23:32;;;;;;;;;;;19.90;75.60;;;;;;5063188;28;42899;-75
2023/05/14 04:25:57;;;;;;;;;;;19.90;75.30;;;;;;5063304;28;42964;-76
2023/05/14 04:28:23;;;;;;;;;;;19.80;75.40;;;;;;5062801;28;43767;-75
2023/05/14 04:30:48;;;;;;;;;;;20.00;75.20;;;;;;5063109;28;43126;-75
2023/05/14 04:33:14;;;;;;;;;;;19.80;75.60;;;;;;5060847;28;43667;-76
2023/05/14 04:35:40;;;;;;;;;;;19.90;75.30;;;;;;5045053;28;43000;-76
2023/05/14 04:38:05;;;;;;;;;;;20.20;76.00;;;;;;5054672;28;43015;-76
2023/05/14 04:40:31;;;;;;;;;;;20.00;75.40;;;;;;5052815;28;43020;-76
2023/05/14 04:42:56;;;;;;;;;;;19.90;75.30;;;;;;5053510;28;43759;-76
2023/05/14 04:45:22;;;;;;;;;;;19.90;75.10;;;;;;5056781;28;43209;-78
2023/05/14 04:47:48;;;;;;;;;;;20.00;75.20;;;;;;5050686;28;43568;-76
2023/05/14 04:50:13;;;;;;;;;;;20.00;75.20;;;;;;5055085;28;43043;-75
2023/05/14 04:52:39;;;;;;;;;;;19.80;75.10;;;;;;5067054;28;43291;-75
2023/05/14 04:55:05;;;;;;;;;;;19.80;75.60;;;;;;5066726;28;43002;-75
2023/05/14 04:57:30;;;;;;;;;;;19.90;75.30;;;;;;5065937;28;43026;-75
2023/05/14 04:59:56;;;;;;;;;;;19.80;75.60;;;;;;5065013;28;43263;-75
2023/05/14 05:02:21;;;;;;;;;;;19.90;75.40;;;;;;5066736;28;43358;-75
2023/05/14 05:04:47;;;;;;;;;;;19.90;75.30;;;;;;5067354;28;42901;-75
2023/05/14 05:07:13;;;;;;;;;;;19.90;75.30;;;;;;5066682;28;42926;-76
2023/05/14 05:09:39;;;;;;;;;;;19.80;75.50;;;;;;5066367;28;42891;-76
2023/05/14 05:12:05;;;;;;;;;;;22.30;76.60;;;;;;5065539;28;43443;-76
2023/05/14 05:14:30;;;;;;;;;;;20.10;75.40;;;;;;5066207;28;42953;-76
2023/05/14 05:16:56;;;;;;;;;;;19.90;75.70;;;;;;5065818;28;42920;-76
2023/05/14 05:19:21;;;;;;;;;;;19.90;75.10;;;;;;5066561;28;42893;-76
2023/05/14 05:21:47;;;;;;;;;;;19.80;75.50;;;;;;5065907;28;42999;-81
2023/05/14 05:24:12;;;;;;;;;;;20.00;75.40;;;;;;5064955;28;43039;-80
2023/05/14 05:26:38;;;;;;;;;;;19.70;75.40;;;;;;5064639;28;45086;-76
2023/05/14 05:29:04;;;;;;;;;;;19.80;75.20;;;;;;5065152;28;43029;-75
2023/05/14 05:31:30;;;;;;;;;;;19.70;75.60;;;;;;5066078;28;43064;-76
2023/05/14 05:33:56;;;;;;;;;;;20.00;75.60;;;;;;5065887;28;42933;-75
2023/05/14 05:36:21;;;;;;;;;;;20.00;75.20;;;;;;5063214;28;43714;-75
2023/05/14 05:38:47;;;;;;;;;;;19.90;75.30;;;;;;5063022;28;43040;-76
2023/05/14 05:41:12;;;;;;;;;;;20.00;75.10;;;;;;5062202;28;43950;-77
2023/05/14 05:43:38;;;;;;;;;;;20.10;75.40;;;;;;5062037;28;42984;-81
2023/05/14 05:46:03;;;;;;;;;;;19.90;75.30;;;;;;5055666;28;42961;-83
2023/05/14 05:48:29;;;;;;;;;;;20.00;75.40;;;;;;5063898;28;43073;-81
2023/05/14 05:50:54;;;;;;;;;;;19.90;75.30;;;;;;5064910;28;43271;-77
2023/05/14 05:53:20;;;;;;;;;;;20.00;75.40;;;;;;5065292;28;43162;-76
2023/05/14 05:55:45;;;;;;;;;;;19.90;75.10;;;;;;5064683;28;43718;-78
2023/05/14 05:58:14;;;;;;;;;;;19.90;75.40;;;;;;5059179;28;44008;-76
2023/05/14 06:00:40;;;;;;;;;;;;;;;;;;5053535;28;43265;-79
2023/05/14 06:03:06;;;;;;;;;;;20.00;75.40;;;;;;5065554;28;43122;-77
2023/05/14 06:05:31;;;;;;;;;;;20.00;75.40;;;;;;5062302;28;42933;-78
2023/05/14 06:07:57;;;;;;;;;;;19.90;75.60;;;;;;5063257;28;43107;-79
2023/05/14 06:10:23;;;;;;;;;;;20.00;75.50;;;;;;5064145;28;45541;-78
2023/05/14 06:12:48;;;;;;;;;;;19.90;75.50;;;;;;5063638;28;43054;-79
2023/05/14 06:15:14;;;;;;;;;;;20.20;75.70;;;;;;5057819;28;45295;-76
2023/05/14 06:17:40;;;;;;;;;;;20.00;75.50;;;;;;5056175;28;42778;-77
2023/05/14 06:20:06;;;;;;;;;;;20.00;75.60;;;;;;5060142;28;43354;-81
2023/05/14 06:22:32;;;;;;;;;;;20.00;75.50;;;;;;5059735;28;43271;-75
2023/05/14 06:24:58;;;;;;;;;;;20.00;75.60;;;;;;5060464;28;43987;-78
2023/05/14 06:27:23;;;;;;;;;;;19.90;75.60;;;;;;5059922;28;43072;-76
2023/05/14 06:29:49;;;;;;;;;;;20.00;75.90;;;;;;5061595;28;43215;-76
2023/05/14 06:32:14;;;;;;;;;;;20.00;75.80;;;;;;5064412;28;43001;-74
2023/05/14 06:34:43;;;;;;;;;;;20.00;75.90;;;;;;5056783;28;43139;-78
2023/05/14 06:37:09;;;;;;;;;;;20.00;75.90;;;;;;5063675;28;42979;-81
2023/05/14 06:39:36;;;;;;;;;;;20.10;76.30;;;;;;5061291;28;43047;-77
2023/05/14 06:42:02;;;;;;;;;;;20.00;76.20;;;;;;5062195;28;43175;-78
2023/05/14 06:44:28;;;;;;;;;;;19.90;76.50;;;;;;5061327;28;43942;-74
2023/05/14 06:46:53;;;;;;;;;;;20.10;76.30;;;;;;5063019;28;43490;-75
2023/05/14 06:49:20;;;;;;;;;;;20.00;76.10;;;;;;5064468;28;43577;-75
2023/05/14 06:51:45;;;;;;;;;;;20.00;75.90;;;;;;5063304;28;43069;-78
2023/05/14 06:54:11;;;;;;;;;;;19.90;75.90;;;;;;5061709;28;43288;-75
2023/05/14 06:56:36;;;;;;;;;;;19.90;75.60;;;;;;5063122;28;43289;-76
2023/05/14 06:59:02;;;;;;;;;;;19.90;76.10;;;;;;5060989;28;43847;-75
2023/05/14 07:01:28;;;;;;;;;;;20.00;75.90;;;;;;5064136;28;42937;-75
2023/05/14 07:03:53;;;;;;;;;;;20.10;76.80;;;;;;5063966;28;42959;-78
2023/05/14 07:06:19;;;;;;;;;;;19.80;76.10;;;;;;5063419;28;43001;-73
2023/05/14 07:08:47;;;;;;;;;;;20.10;76.20;;;;;;5063172;28;43847;-74
2023/05/14 07:11:12;;;;;;;;;;;20.10;76.10;;;;;;5060947;28;43008;-77
2023/05/14 07:13:38;;;;;;;;;;;20.10;76.10;;;;;;5051959;28;44079;-76
2023/05/14 07:16:04;;;;;;;;;;;20.00;75.90;;;;;;5062715;28;43029;-74
2023/05/14 07:18:30;;;;;;;;;;;20.10;75.90;;;;;;5063527;28;43035;-78
2023/05/14 07:20:55;;;;;;;;;;;19.90;75.70;;;;;;5063514;28;42983;-74
2023/05/14 07:23:21;;;;;;;;;;;20.30;75.90;;;;;;5059746;28;43462;-75
2023/05/14 07:25:46;;;;;;;;;;;20.00;76.00;;;;;;5051310;28;42946;-76
2023/05/14 07:28:12;;;;;;;;;;;19.90;75.90;;;;;;5060480;28;44013;-75
2023/05/14 07:30:38;;;;;;;;;;;20.00;75.80;;;;;;5060965;28;42954;-75
2023/05/14 07:33:03;;;;;;;;;;;23.40;78.10;;;;;;5059985;28;43446;-74
2023/05/14 07:35:29;;;;;;;;;;;20.00;76.30;;;;;;5053991;28;42960;-74
2023/05/14 07:37:54;;;;;;;;;;;19.90;76.20;;;;;;5059423;28;43059;-75
2023/05/14 07:40:20;;;;;;;;;;;20.10;76.10;;;;;;5056906;28;42982;-74
2023/05/14 07:42:45;;;;;;;;;;;19.90;76.10;;;;;;5090262;27;43070;-75
2023/05/14 07:45:11;;;;;;;;;;;19.90;76.10;;;;;;5063049;28;42899;-76
2023/05/14 07:47:36;;;;;;;;;;;20.00;76.30;;;;;;5054162;28;43812;-75
2023/05/14 07:50:02;;;;;;;;;;;19.90;76.20;;;;;;5062242;28;43197;-74
2023/05/14 07:52:28;;;;;;;;;;;19.90;76.30;;;;;;5061142;28;43761;-75
2023/05/14 07:54:53;;;;;;;;;;;20.00;76.40;;;;;;5057506;28;43046;-75
2023/05/14 07:57:19;;;;;;;;;;;19.80;76.20;;;;;;5056769;28;43472;-75
2023/05/14 07:59:45;;;;;;;;;;;19.80;76.00;;;;;;5058022;28;43811;-76
2023/05/14 08:02:11;;;;;;;;;;;19.90;76.50;;;;;;5056541;28;43550;-74
2023/05/14 08:04:37;;;;;;;;;;;20.00;76.10;;;;;;5057302;28;42999;-74
2023/05/14 08:07:03;;;;;;;;;;;19.90;76.60;;;;;;5057811;28;43144;-76
2023/05/14 08:09:28;;;;;;;;;;;19.90;76.00;;;;;;5061731;28;43005;-75
2023/05/14 08:11:54;;;;;;;;;;;20.00;76.40;;;;;;5058920;28;43001;-74
2023/05/14 08:14:20;;;;;;;;;;;20.00;76.40;;;;;;5057938;28;43021;-78
2023/05/14 08:16:46;;;;;;;;;;;20.00;75.80;;;;;;5051504;28;43806;-74
2023/05/14 08:19:12;;;;;;;;;;;19.90;76.40;;;;;;5060209;28;43186;-76
2023/05/14 08:21:37;;;;;;;;;;;19.90;76.10;;;;;;5060589;28;43377;-74
2023/05/14 08:24:03;;;;;;;;;;;19.90;75.90;;;;;;5051716;28;43140;-74
2023/05/14 08:26:28;;;;;;;;;;;20.00;76.40;;;;;;5063342;28;42998;-75
2023/05/14 08:28:54;;;;;;;;;;;19.90;76.60;;;;;;5077187;27;42999;-74
2023/05/14 08:31:19;;;;;;;;;;;19.80;76.00;;;;;;5062656;28;43897;-75
2023/05/14 08:33:45;;;;;;;;;;;19.80;76.40;;;;;;5060650;28;43020;-74
2023/05/14 08:36:10;;;;;;;;;;;19.90;76.10;;;;;;5051329;28;43565;-76
2023/05/14 08:38:36;;;;;;;;;;;19.80;76.40;;;;;;5071937;28;42885;-75
2023/05/14 08:41:04;;;;;;;;;;;19.90;76.40;;;;;;5057625;28;43045;-74
2023/05/14 08:43:33;;;;;;;;;;;20.00;76.30;;;;;;5061659;28;43009;-75
2023/05/14 08:46:00;;;;;;;;;;;19.90;75.90;;;;;;5063711;28;44196;-75
2023/05/14 08:48:27;;;;;;;;;;;19.90;76.50;;;;;;5070597;28;43072;-75
2023/05/14 08:50:53;;;;;;;;;;;20.00;76.50;;;;;;5061489;28;43155;-74
2023/05/14 08:53:19;;;;;;;;;;;19.90;76.30;;;;;;5065115;28;44244;-73
2023/05/14 08:55:44;;;;;;;;;;;19.80;76.10;;;;;;5058976;28;43425;-74
2023/05/14 08:58:10;;;;;;;;;;;20.00;76.30;;;;;;5052498;28;42980;-75
2023/05/14 09:00:36;;;;;;;;;;;20.00;76.50;;;;;;5051000;28;44513;-75
2023/05/14 09:03:02;;;;;;;;;;;20.10;76.20;;;;;;5056874;28;42954;-75
2023/05/14 09:05:28;;;;;;;;;;;19.90;76.30;;;;;;5055328;28;43213;-79
2023/05/14 09:07:54;;;;;;;;;;;20.00;76.20;;;;;;5064549;28;42984;-75
2023/05/14 09:10:21;;;;;;;;;;;19.90;76.70;;;;;;5056045;28;43456;-75
2023/05/14 09:12:46;;;;;;;;;;;19.20;76.10;;;;;;5056399;28;43025;-76
2023/05/14 09:15:12;;;;;;;;;;;19.90;76.40;;;;;;5054285;28;43441;-73
2023/05/14 09:17:37;;;;;;;;;;;19.90;76.70;;;;;;5051667;28;42986;-74
2023/05/14 09:20:03;;;;;;;;;;;20.00;76.80;;;;;;5047554;28;43762;-74
2023/05/14 09:22:31;;;;;;;;;;;19.90;76.60;;;;;;5054864;28;43056;-75
2023/05/14 09:25:04;;;;;;;;;;;20.00;76.80;;;;;;5060018;28;45426;-75
2023/05/14 09:27:30;;;;;;;;;;;19.90;74.50;;;;;;5063251;28;43086;-75
2023/05/14 09:30:03;;;;;;;;;;;19.90;76.70;;;;;;5059009;28;43025;-74
2023/05/14 09:32:34;;;;;;;;;;;20.00;72.90;;;;;;5062462;28;43081;-74
2023/05/14 09:35:08;;;;;;;;;;;19.90;72.20;;;;;;5062090;28;43036;-75
2023/05/14 09:37:35;;;;;;;;;;;19.90;71.80;;;;;;5072207;28;43162;-74
2023/05/14 09:40:05;;;;;;;;;;;19.80;72.00;;;;;;5064725;28;43625;-75
2023/05/14 09:42:30;;;;;;;;;;;19.60;72.00;;;;;;5061540;28;43005;-75
2023/05/14 09:44:56;;;;;;;;;;;20.00;72.20;;;;;;5064956;28;42866;-74
2023/05/14 09:47:21;;;;;;;;;;;20.00;71.60;;;;;;5072251;28;42954;-74
2023/05/14 09:49:47;;;;;;;;;;;20.00;71.20;;;;;;5065426;27;43622;-77
2023/05/14 09:52:13;;;;;;;;;;;18.90;70.50;;;;;;5063927;28;42962;-75
2023/05/14 09:54:38;;;;;;;;;;;19.80;71.00;;;;;;5064972;28;44016;-76
2023/05/14 09:57:04;;;;;;;;;;;19.90;71.70;;;;;;5065961;28;42957;-75
2023/05/14 09:59:30;;;;;;;;;;;19.00;70.60;;;;;;5064333;28;43371;-75
2023/05/14 10:01:56;;;;;;;;;;;20.00;71.60;;;;;;5064193;28;43333;-75
2023/05/14 10:04:22;;;;;;;;;;;19.90;71.30;;;;;;5063501;28;43083;-75
2023/05/14 10:06:49;;;;;;;;;;;19.80;71.10;;;;;;5067499;28;43039;-79
2023/05/14 10:09:15;;;;;;;;;;;19.80;71.30;;;;;;5055432;27;42850;-75
2023/05/14 10:11:42;;;;;;;;;;;19.80;71.00;;;;;;5064658;28;43029;-75
2023/05/14 10:14:19;;;;;;;;;;;19.80;71.30;;;;;;5064549;28;43913;-75
2023/05/14 10:16:49;;;;;;;;;;;19.80;71.40;;;;;;5066051;28;43009;-75
2023/05/14 10:19:16;;;;;;;;;;;19.70;68.70;;;;;;5060014;28;42934;-75
2023/05/14 10:21:44;;;;;;;;;;;19.90;71.40;;;;;;5057834;28;42936;-74
2023/05/14 10:24:10;;;;;;;;;;;19.90;71.10;;;;;;5063848;28;43239;-73
2023/05/14 10:26:38;;;;;;;;;;;19.90;71.20;;;;;;5064473;28;42936;-74
2023/05/14 10:29:08;;;;;;;;;;;19.90;70.00;;;;;;5072664;27;42967;-77
2023/05/14 10:31:45;;;;;;;;;;;19.70;67.30;;;;;;5063984;28;42959;-77
2023/05/14 10:34:43;;;;;;;;;;;20.10;67.10;;;;;;5055623;28;43086;-78
2023/05/14 10:37:20;;;;;;;;;;;19.90;67.30;;;;;;5040169;28;43842;-77
2023/05/14 10:39:49;;;;;;;;;;;20.00;68.60;;;;;;5056084;28;44116;-74
2023/05/14 10:42:18;;;;;;;;;;;20.20;68.80;;;;;;5061851;28;42933;-74
2023/05/14 10:44:48;;;;;;;;;;;19.90;66.00;;;;;;5048983;28;43606;-74
2023/05/14 10:47:15;;;;;;;;;;;19.60;69.00;;;;;;5068898;28;43183;-74
2023/05/14 10:49:41;;;;;;;;;;;19.80;69.00;;;;;;5066311;27;43482;-76
2023/05/14 10:52:08;;;;;;;;;;;20.00;68.80;;;;;;5062845;28;42858;-77
2023/05/14 10:54:34;;;;;;;;;;;19.80;69.20;;;;;;5060944;28;43061;-76
2023/05/14 10:56:59;;;;;;;;;;;19.90;68.90;;;;;;5061706;28;43068;-82
2023/05/14 10:59:26;;;;;;;;;;;19.80;69.40;;;;;;5062406;28;43897;-74
2023/05/14 11:01:52;;;;;;;;;;;19.80;69.50;;;;;;5064298;28;43015;-76
2023/05/14 11:04:18;;;;;;;;;;;19.70;69.80;;;;;;5060661;28;43043;-76
2023/05/14 11:06:43;;;;;;;;;;;19.80;70.30;;;;;;5053396;28;43450;-77
2023/05/14 11:09:10;;;;;;;;;;;19.80;70.60;;;;;;5059379;28;43737;-76
2023/05/14 11:11:36;;;;;;;;;;;19.90;70.40;;;;;;5062160;28;42967;-80
2023/05/14 11:14:02;;;;;;;;;;;20.00;70.30;;;;;;5062149;28;43045;-76
2023/05/14 11:16:29;;;;;;;;;;;19.80;70.30;;;;;;5063081;28;42980;-82
2023/05/14 11:19:05;;;;;;;;;;;19.30;70.30;;;;;;5130048;27;43905;-77
2023/05/14 11:21:31;;;;;;;;;;;20.00;71.00;;;;;;5118519;27;43538;-73
2023/05/14 11:23:59;;;;;;;;;;;19.80;70.80;;;;;;5114122;27;43909;-79
2023/05/14 11:26:24;;;;;;;;;;;20.10;70.80;;;;;;5112075;27;43900;-76
2023/05/14 11:28:50;;;;;;;;;;;20.00;71.20;;;;;;5104453;27;43161;-76
2023/05/14 11:31:16;;;;;;;;;;;20.00;70.50;;;;;;5102519;27;43606;-77
2023/05/14 11:33:41;;;;;;;;;;;19.90;70.90;;;;;;5112103;27;43273;-76
2023/05/14 11:36:09;;;;;;;;;;;19.90;70.50;;;;;;5106272;27;43001;-75
2023/05/14 11:38:44;;;;;;;;;;;20.10;70.60;;;;;;5087190;27;43068;-75
2023/05/14 11:41:13;;;;;;;;;;;20.10;71.00;;;;;;5116088;27;43306;-77
2023/05/14 11:43:38;;;;;;;;;;;19.90;70.90;;;;;;5110995;27;44059;-79
2023/05/14 11:46:04;;;;;;;;;;;20.10;71.00;;;;;;5108428;27;42985;-80
2023/05/14 11:48:31;;;;;;;;;;;20.10;71.20;;;;;;5106226;27;43025;-79
2023/05/14 11:50:57;;;;;;;;;;;19.90;71.80;;;;;;5101260;27;44075;-80
2023/05/14 11:53:26;;;;;;;;;;;20.10;71.30;;;;;;5102270;27;43136;-80
2023/05/14 11:55:53;;;;;;;;;;;19.90;69.10;;;;;;5111587;27;43976;-80
2023/05/14 11:58:19;;;;;;;;;;;20.20;71.30;;;;;;5109463;27;43179;-79
2023/05/14 12:00:45;;;;;;;;;;;19.90;71.20;;;;;;5105600;27;42927;-81
2023/05/14 12:03:10;;;;;;;;;;;20.10;71.40;;;;;;5112609;27;42932;-79
2023/05/14 12:05:36;;;;;;;;;;;20.00;71.60;;;;;;5113910;27;43116;-80
2023/05/14 12:08:02;;;;;;;;;;;20.10;71.80;;;;;;5109976;27;43120;-79
2023/05/14 12:10:27;;;;;;;;;;;21.80;72.70;;;;;;5110502;27;43824;-79
2023/05/14 12:12:53;;;;;;;;;;;19.80;71.30;;;;;;5111218;27;42900;-80
2023/05/14 12:15:20;;;;;;;;;;;20.20;71.80;;;;;;5109436;27;43429;-80
2023/05/14 12:17:50;;;;;;;;;;;20.00;71.10;;;;;;5115321;27;42965;-79
2023/05/14 12:20:16;;;;;;;;;;;19.90;69.20;;;;;;5097907;27;44347;-82
2023/05/14 12:22:41;;;;;;;;;;;17.90;70.20;;;;;;5113180;27;44041;-83
2023/05/14 12:25:12;;;;;;;;;;;19.90;70.90;;;;;;5111837;27;43603;-81
2023/05/14 12:27:37;;;;;;;;;;;20.10;68.60;;;;;;5113105;27;42942;-80
2023/05/14 12:30:04;;;;;;;;;;;19.80;70.70;;;;;;5102649;27;42925;-77
2023/05/14 12:32:33;;;;;;;;;;;20.00;70.80;;;;;;5095957;27;43036;-78
2023/05/14 12:35:00;;;;;;;;;;;19.90;68.80;;;;;;5081654;27;44575;-80
2023/05/14 12:37:25;;;;;;;;;;;19.90;71.00;;;;;;5098268;27;43079;-78
2023/05/14 12:39:51;;;;;;;;;;;20.00;71.10;;;;;;5097509;27;43738;-78
2023/05/14 12:42:16;;;;;;;;;;;19.60;70.80;;;;;;5095825;27;42993;-77
2023/05/14 12:44:42;;;;;;;;;;;20.00;69.00;;;;;;5095643;27;43007;-78
2023/05/14 12:47:07;;;;;;;;;;;19.90;69.40;;;;;;5097541;27;43363;-78
2023/05/14 12:49:33;;;;;;;;;;;20.00;69.60;;;;;;5088780;27;43697;-79
2023/05/14 12:51:58;;;;;;;;;;;20.00;69.10;;;;;;5096929;27;42941;-78
2023/05/14 12:54:24;;;;;;;;;;;20.10;69.00;;;;;;5097173;27;43951;-78
2023/05/14 12:56:49;;;;;;;;;;;19.90;69.40;;;;;;5092298;27;43263;-78
2023/05/14 12:59:15;;;;;;;;;;;20.00;69.10;;;;;;5099309;27;44048;-77
2023/05/14 13:01:41;;;;;;;;;;;20.30;69.00;;;;;;5082962;27;42985;-77
2023/05/14 13:04:11;;;;;;;;;;;20.00;68.30;;;;;;5095548;27;43096;-79
2023/05/14 13:06:38;;;;;;;;;;;20.00;68.50;;;;;;5092792;27;43118;-77
2023/05/14 13:09:03;;;;;;;;;;;19.90;68.40;;;;;;5072247;28;45210;-81
2023/05/14 13:11:30;;;;;;;;;;;19.90;68.30;;;;;;5091842;27;42992;-77
2023/05/14 13:13:57;;;;;;;;;;;19.70;68.00;;;;;;5072059;27;44622;-76
2023/05/14 13:16:24;;;;;;;;;;;19.70;68.70;;;;;;5076945;27;43140;-79
2023/05/14 13:18:49;;;;;;;;;;;19.90;67.80;;;;;;5092728;27;43008;-77
2023/05/14 13:21:15;;;;;;;;;;;20.00;67.80;;;;;;5089563;27;43035;-80
2023/05/14 13:23:40;;;;;;;;;;;20.00;67.20;;;;;;5075594;27;44525;-78
2023/05/14 13:26:06;;;;;;;;;;;19.90;67.50;;;;;;5083447;27;42977;-82
2023/05/14 13:28:32;;;;;;;;;;;20.00;66.70;;;;;;5090831;27;43062;-76
2023/05/14 13:31:05;;;;;;;;;;;19.80;66.90;;;;;;5077259;27;43114;-79
2023/05/14 13:33:31;;;;;;;;;;;19.90;66.30;;;;;;5097526;27;42920;-79
2023/05/14 13:35:57;;;;;;;;;;;20.00;66.40;;;;;;5102452;27;43017;-80
2023/05/14 13:38:22;;;;;;;;;;;19.90;66.10;;;;;;5094982;27;43010;-81
2023/05/14 13:40:48;;;;;;;;;;;19.50;66.50;;;;;;5094874;27;43865;-82
2023/05/14 13:43:15;;;;;;;;;;;19.90;66.50;;;;;;5094580;27;43215;-81
2023/05/14 13:45:41;;;;;;;;;;;20.00;66.40;;;;;;5102090;27;43010;-81
2023/05/14 13:48:07;;;;;;;;;;;19.90;66.50;;;;;;5079062;27;44451;-81
2023/05/14 13:50:32;;;;;;;;;;;19.90;66.30;;;;;;5101693;27;42964;-81
2023/05/14 13:52:58;;;;;;;;;;;19.90;66.20;;;;;;5092511;27;43480;-81
2023/05/14 13:55:23;;;;;;;;;;;19.90;66.30;;;;;;5103722;27;43004;-80
2023/05/14 13:57:49;;;;;;;;;;;19.80;66.20;;;;;;5098574;27;43153;-81
2023/05/14 14:00:15;;;;;;;;;;;20.00;66.70;;;;;;5105235;27;43116;-82
2023/05/14 14:02:40;;;;;;;;;;;19.80;66.20;;;;;;5090740;27;43325;-78
2023/05/14 14:05:06;;;;;;;;;;;19.90;66.20;;;;;;5103136;27;44170;-77
2023/05/14 14:07:31;;;;;;;;;;;19.80;66.50;;;;;;5094973;27;43517;-78
2023/05/14 14:09:58;;;;;;;;;;;19.90;66.70;;;;;;5084700;27;42929;-78
2023/05/14 14:12:25;;;;;;;;;;;19.90;66.70;;;;;;5097746;27;43609;-78
2023/05/14 14:14:51;;;;;;;;;;;19.90;65.80;;;;;;5096055;27;43112;-77